DHL101 OEJN-HAAB
Flight info
| Callsign | DHL101 |
|---|---|
| Flight time | 2h 49m |
| Altitude | 35000 |
| Route | RIBAM/N0464F370 G650 RASKA/N0466F360 UG650 KONET/N0462F370 DCT EKBOB/N0459F380 UT114 MEKEL MEKEL1A |
| Aircraft | B738/M-SDE2E3FGHIRWXY/LB1 |
Departure
| Time | 2026-04-27 17:36 |
|---|---|
| Airport | King Abdulaziz International Airport (OEJN) |
Arrival
| Time | 2026-04-27 20:25 |
|---|---|
| Airport | Addis Ababa Bole International Airport (HAAB) |
| Time | Latitude | Longitude | Altitude | Speed | Heading |
|---|---|---|---|---|---|
| 2026-04-27 17:14 | 21.67250 | 39.15610 | 2 ft | 0 kts | 249° |
| 2026-04-27 17:27 | 21.67254 | 39.15622 | 30 ft | 3 kts | 247° |
| 2026-04-27 17:27 | 21.67262 | 39.15641 | 29 ft | 3 kts | 242° |
| 2026-04-27 17:27 | 21.67272 | 39.15660 | 30 ft | 3 kts | 236° |
| 2026-04-27 17:28 | 21.67284 | 39.15678 | 30 ft | 3 kts | 228° |
| 2026-04-27 17:28 | 21.67298 | 39.15693 | 30 ft | 3 kts | 215° |
| 2026-04-27 17:28 | 21.67328 | 39.15703 | 30 ft | 1 kts | 160° |
| 2026-04-27 17:29 | 21.67329 | 39.15703 | 30 ft | 1 kts | 160° |
| 2026-04-27 17:30 | 21.67327 | 39.15703 | 30 ft | 0 kts | 160° |
| 2026-04-27 17:31 | 21.67327 | 39.15704 | 30 ft | 0 kts | 160° |
| 2026-04-27 17:31 | 21.67312 | 39.15709 | 30 ft | 6 kts | 160° |
| 2026-04-27 17:31 | 21.67245 | 39.15735 | 30 ft | 15 kts | 160° |
| 2026-04-27 17:31 | 21.67122 | 39.15784 | 30 ft | 23 kts | 160° |
| 2026-04-27 17:32 | 21.66949 | 39.15851 | 31 ft | 29 kts | 160° |
| 2026-04-27 17:32 | 21.66576 | 39.15999 | 33 ft | 27 kts | 160° |
| 2026-04-27 17:32 | 21.66405 | 39.16067 | 33 ft | 25 kts | 159° |
| 2026-04-27 17:33 | 21.66245 | 39.16129 | 34 ft | 24 kts | 159° |
| 2026-04-27 17:33 | 21.66097 | 39.16189 | 34 ft | 22 kts | 161° |
| 2026-04-27 17:33 | 21.66080 | 39.16321 | 34 ft | 21 kts | 67° |
| 2026-04-27 17:33 | 21.66113 | 39.16404 | 31 ft | 2 kts | 66° |
| 2026-04-27 17:34 | 21.66121 | 39.16424 | 33 ft | 5 kts | 65° |
| 2026-04-27 17:34 | 21.66146 | 39.16469 | 33 ft | 9 kts | 34° |
| 2026-04-27 17:34 | 21.66170 | 39.16466 | 33 ft | 0 kts | 338° |
| 2026-04-27 17:34 | 21.66171 | 39.16466 | 33 ft | 1 kts | 338° |
| 2026-04-27 17:35 | 21.66279 | 39.16423 | 33 ft | 46 kts | 340° |
| 2026-04-27 17:35 | 21.66795 | 39.16221 | 35 ft | 109 kts | 340° |
| 2026-04-27 17:35 | 21.67663 | 39.15883 | 131 ft | 147 kts | 340° |
| 2026-04-27 17:35 | 21.68673 | 39.15493 | 609 ft | 159 kts | 339° |
| 2026-04-27 17:36 | 21.69656 | 39.15057 | 1372 ft | 149 kts | 343° |
| 2026-04-27 17:36 | 21.70652 | 39.14664 | 1892 ft | 161 kts | 343° |
| 2026-04-27 17:36 | 21.71795 | 39.14222 | 2134 ft | 188 kts | 341° |
| 2026-04-27 17:36 | 21.73100 | 39.13713 | 2312 ft | 211 kts | 339° |
| 2026-04-27 17:37 | 21.74312 | 39.12742 | 2539 ft | 230 kts | 306° |
| 2026-04-27 17:37 | 21.74866 | 39.11072 | 2798 ft | 253 kts | 277° |
| 2026-04-27 17:37 | 21.74624 | 39.09140 | 3231 ft | 270 kts | 251° |
| 2026-04-27 17:37 | 21.73573 | 39.07481 | 3998 ft | 273 kts | 222° |
| 2026-04-27 17:38 | 21.71903 | 39.06589 | 4681 ft | 275 kts | 190° |
| 2026-04-27 17:38 | 21.69996 | 39.06449 | 5398 ft | 276 kts | 180° |
| 2026-04-27 17:38 | 21.68038 | 39.06525 | 6089 ft | 280 kts | 179° |
| 2026-04-27 17:38 | 21.66090 | 39.06640 | 6797 ft | 281 kts | 179° |
| 2026-04-27 17:39 | 21.64159 | 39.06749 | 7517 ft | 282 kts | 181° |
| 2026-04-27 17:39 | 21.62207 | 39.06847 | 8330 ft | 282 kts | 180° |
| 2026-04-27 17:39 | 21.60246 | 39.06935 | 9130 ft | 282 kts | 181° |
| 2026-04-27 17:39 | 21.58278 | 39.07012 | 9906 ft | 284 kts | 181° |
| 2026-04-27 17:40 | 21.56273 | 39.07083 | 10441 ft | 297 kts | 181° |
| 2026-04-27 17:40 | 21.54119 | 39.07151 | 10610 ft | 321 kts | 181° |
| 2026-04-27 17:40 | 21.51827 | 39.07222 | 10951 ft | 336 kts | 181° |
| 2026-04-27 17:40 | 21.49468 | 39.07296 | 11565 ft | 341 kts | 181° |
| 2026-04-27 17:41 | 21.47097 | 39.07370 | 11936 ft | 341 kts | 181° |
| 2026-04-27 17:41 | 21.44722 | 39.07443 | 12000 ft | 343 kts | 181° |
| 2026-04-27 17:41 | 21.42336 | 39.07515 | 12000 ft | 343 kts | 181° |
| 2026-04-27 17:41 | 21.39938 | 39.07587 | 12095 ft | 347 kts | 181° |
| 2026-04-27 17:42 | 21.37520 | 39.07659 | 12854 ft | 347 kts | 181° |
| 2026-04-27 17:42 | 21.35107 | 39.07731 | 13701 ft | 347 kts | 182° |
| 2026-04-27 17:42 | 21.32683 | 39.07802 | 14373 ft | 350 kts | 182° |
| 2026-04-27 17:42 | 21.30237 | 39.07874 | 15042 ft | 353 kts | 182° |
| 2026-04-27 17:43 | 21.27771 | 39.07946 | 15726 ft | 356 kts | 182° |
| 2026-04-27 17:43 | 21.25282 | 39.08020 | 16411 ft | 359 kts | 183° |
| 2026-04-27 17:43 | 21.22772 | 39.08094 | 17077 ft | 362 kts | 183° |
| 2026-04-27 17:43 | 21.20243 | 39.08168 | 17718 ft | 366 kts | 183° |
| 2026-04-27 17:44 | 21.17683 | 39.08243 | 18303 ft | 370 kts | 183° |
| 2026-04-27 17:44 | 21.15100 | 39.08324 | 18866 ft | 372 kts | 184° |
| 2026-04-27 17:44 | 21.12507 | 39.08410 | 19472 ft | 374 kts | 184° |
| 2026-04-27 17:44 | 21.09901 | 39.08498 | 20043 ft | 375 kts | 184° |
| 2026-04-27 17:45 | 21.07284 | 39.08587 | 20609 ft | 378 kts | 184° |
| 2026-04-27 17:45 | 21.04648 | 39.08675 | 21164 ft | 380 kts | 184° |
| 2026-04-27 17:45 | 21.01999 | 39.08763 | 21693 ft | 383 kts | 184° |
| 2026-04-27 17:45 | 20.99326 | 39.08852 | 22218 ft | 385 kts | 184° |
| 2026-04-27 17:46 | 20.96642 | 39.08942 | 22751 ft | 387 kts | 184° |
| 2026-04-27 17:46 | 20.93940 | 39.09032 | 23221 ft | 390 kts | 184° |
| 2026-04-27 17:46 | 20.91211 | 39.09121 | 23594 ft | 395 kts | 184° |
| 2026-04-27 17:46 | 20.88453 | 39.09213 | 23949 ft | 398 kts | 184° |
| 2026-04-27 17:47 | 20.85670 | 39.09306 | 24297 ft | 402 kts | 184° |
| 2026-04-27 17:47 | 20.83814 | 39.09368 | 24524 ft | 404 kts | 184° |
| 2026-04-27 17:47 | 20.80032 | 39.09494 | 24981 ft | 409 kts | 184° |
| 2026-04-27 17:47 | 20.77177 | 39.09589 | 25314 ft | 412 kts | 184° |
| 2026-04-27 17:48 | 20.74294 | 39.09685 | 25635 ft | 416 kts | 185° |
| 2026-04-27 17:48 | 20.71390 | 39.09781 | 25955 ft | 419 kts | 185° |
| 2026-04-27 17:48 | 20.68467 | 39.09809 | 26245 ft | 421 kts | 187° |
| 2026-04-27 17:48 | 20.65529 | 39.09751 | 26543 ft | 424 kts | 188° |
| 2026-04-27 17:49 | 20.62569 | 39.09657 | 26843 ft | 427 kts | 188° |
| 2026-04-27 17:49 | 20.59589 | 39.09556 | 27152 ft | 430 kts | 188° |
| 2026-04-27 17:49 | 20.56629 | 39.09458 | 27458 ft | 433 kts | 188° |
| 2026-04-27 17:49 | 20.53608 | 39.09366 | 27739 ft | 436 kts | 188° |
| 2026-04-27 17:50 | 20.50564 | 39.09280 | 28018 ft | 439 kts | 188° |
| 2026-04-27 17:50 | 20.44411 | 39.09117 | 28568 ft | 445 kts | 188° |
| 2026-04-27 17:50 | 20.41301 | 39.09038 | 28807 ft | 449 kts | 188° |
| 2026-04-27 17:51 | 20.38168 | 39.08959 | 29044 ft | 452 kts | 188° |
| 2026-04-27 17:51 | 20.35014 | 39.08879 | 29294 ft | 455 kts | 188° |
| 2026-04-27 17:51 | 20.31844 | 39.08799 | 29554 ft | 457 kts | 188° |
| 2026-04-27 17:51 | 20.28655 | 39.08719 | 29752 ft | 460 kts | 188° |
| 2026-04-27 17:52 | 20.25438 | 39.08637 | 29884 ft | 465 kts | 188° |
| 2026-04-27 17:52 | 20.22186 | 39.08554 | 30025 ft | 469 kts | 188° |
| 2026-04-27 17:52 | 20.18919 | 39.08472 | 30245 ft | 470 kts | 188° |
| 2026-04-27 17:52 | 20.16760 | 39.08418 | 30409 ft | 469 kts | 187° |
| 2026-04-27 17:53 | 20.12401 | 39.08311 | 30857 ft | 467 kts | 187° |
| 2026-04-27 17:53 | 20.09155 | 39.08231 | 31138 ft | 467 kts | 187° |
| 2026-04-27 17:53 | 20.05907 | 39.08150 | 31393 ft | 467 kts | 187° |
| 2026-04-27 17:53 | 20.02658 | 39.08067 | 31668 ft | 467 kts | 187° |
| 2026-04-27 17:54 | 19.99406 | 39.07985 | 31964 ft | 467 kts | 187° |
| 2026-04-27 17:54 | 19.96160 | 39.07903 | 32263 ft | 466 kts | 187° |
| 2026-04-27 17:54 | 19.92917 | 39.07821 | 32540 ft | 466 kts | 187° |
| 2026-04-27 17:54 | 19.89672 | 39.07738 | 32813 ft | 466 kts | 187° |
| 2026-04-27 17:55 | 19.86436 | 39.07657 | 33135 ft | 465 kts | 187° |
| 2026-04-27 17:55 | 19.83198 | 39.07575 | 33453 ft | 465 kts | 187° |
| 2026-04-27 17:55 | 19.79963 | 39.07494 | 33735 ft | 465 kts | 187° |
| 2026-04-27 17:55 | 19.76727 | 39.07412 | 34004 ft | 465 kts | 186° |
| 2026-04-27 17:56 | 19.73496 | 39.07330 | 34285 ft | 464 kts | 186° |
| 2026-04-27 17:56 | 19.70268 | 39.07249 | 34574 ft | 463 kts | 186° |
| 2026-04-27 17:56 | 19.67045 | 39.07168 | 34836 ft | 463 kts | 186° |
| 2026-04-27 17:56 | 19.63826 | 39.07087 | 35100 ft | 463 kts | 186° |
| 2026-04-27 17:57 | 19.60611 | 39.07006 | 35368 ft | 462 kts | 186° |
| 2026-04-27 17:57 | 19.57400 | 39.06925 | 35648 ft | 461 kts | 186° |
| 2026-04-27 17:57 | 19.54193 | 39.06845 | 35906 ft | 461 kts | 186° |
| 2026-04-27 17:57 | 19.50990 | 39.06764 | 36155 ft | 460 kts | 186° |
| 2026-04-27 17:58 | 19.47830 | 39.06684 | 36417 ft | 460 kts | 186° |
| 2026-04-27 17:58 | 19.44636 | 39.06604 | 36682 ft | 459 kts | 186° |
| 2026-04-27 17:58 | 19.41444 | 39.06524 | 36927 ft | 459 kts | 186° |
| 2026-04-27 17:58 | 19.38210 | 39.06443 | 37158 ft | 459 kts | 186° |
| 2026-04-27 17:59 | 19.35058 | 39.06363 | 37344 ft | 460 kts | 186° |
| 2026-04-27 17:59 | 19.31861 | 39.06282 | 37566 ft | 460 kts | 186° |
| 2026-04-27 17:59 | 19.28664 | 39.06203 | 37831 ft | 459 kts | 186° |
| 2026-04-27 17:59 | 19.25462 | 39.06122 | 37839 ft | 463 kts | 186° |
| 2026-04-27 18:00 | 19.19000 | 39.05960 | 37849 ft | 464 kts | 186° |
| 2026-04-27 18:00 | 19.12528 | 39.05798 | 37859 ft | 467 kts | 186° |
| 2026-04-27 18:01 | 19.06003 | 39.05494 | 37866 ft | 471 kts | 187° |
| 2026-04-27 18:01 | 18.99440 | 39.05095 | 37859 ft | 473 kts | 187° |
| 2026-04-27 18:02 | 18.92857 | 39.04706 | 37856 ft | 474 kts | 187° |
| 2026-04-27 18:02 | 18.86268 | 39.04335 | 37843 ft | 474 kts | 187° |
| 2026-04-27 18:03 | 18.79686 | 39.03972 | 37854 ft | 473 kts | 187° |
| 2026-04-27 18:03 | 18.73112 | 39.03609 | 37855 ft | 473 kts | 187° |
| 2026-04-27 18:04 | 18.66554 | 39.03247 | 37854 ft | 472 kts | 187° |
| 2026-04-27 18:04 | 18.61108 | 39.02945 | 37858 ft | 471 kts | 187° |
| 2026-04-27 18:05 | 18.54561 | 39.02583 | 37855 ft | 471 kts | 187° |
| 2026-04-27 18:05 | 18.48023 | 39.02222 | 37871 ft | 471 kts | 187° |
| 2026-04-27 18:06 | 18.41480 | 39.01860 | 37853 ft | 471 kts | 187° |
| 2026-04-27 18:06 | 18.34936 | 39.01499 | 37861 ft | 471 kts | 187° |
| 2026-04-27 18:07 | 18.28394 | 39.01139 | 37857 ft | 471 kts | 186° |
| 2026-04-27 18:07 | 18.21856 | 39.00779 | 37853 ft | 471 kts | 186° |
| 2026-04-27 18:08 | 18.15304 | 39.00424 | 37858 ft | 471 kts | 186° |
| 2026-04-27 18:08 | 18.08744 | 39.00172 | 37863 ft | 472 kts | 185° |
| 2026-04-27 18:09 | 18.02173 | 38.99954 | 37850 ft | 472 kts | 185° |
| 2026-04-27 18:09 | 17.95604 | 38.99726 | 37863 ft | 473 kts | 185° |
| 2026-04-27 18:10 | 17.89030 | 38.99488 | 37857 ft | 473 kts | 185° |
| 2026-04-27 18:10 | 17.82451 | 38.99247 | 37853 ft | 473 kts | 185° |
| 2026-04-27 18:11 | 17.75871 | 38.99006 | 37864 ft | 473 kts | 185° |
| 2026-04-27 18:11 | 17.69288 | 38.98767 | 37858 ft | 473 kts | 185° |
| 2026-04-27 18:12 | 17.62743 | 38.98529 | 37858 ft | 474 kts | 185° |
| 2026-04-27 18:12 | 17.56156 | 38.98289 | 37854 ft | 474 kts | 185° |
| 2026-04-27 18:13 | 17.49566 | 38.98049 | 37857 ft | 474 kts | 185° |
| 2026-04-27 18:13 | 17.42973 | 38.97810 | 37861 ft | 474 kts | 185° |
| 2026-04-27 18:14 | 17.36380 | 38.97571 | 37867 ft | 474 kts | 185° |
| 2026-04-27 18:14 | 17.29786 | 38.97332 | 37862 ft | 474 kts | 185° |
| 2026-04-27 18:15 | 17.23190 | 38.97093 | 37856 ft | 474 kts | 185° |
| 2026-04-27 18:15 | 17.16599 | 38.96854 | 37861 ft | 474 kts | 185° |
| 2026-04-27 18:16 | 17.10006 | 38.96615 | 37862 ft | 474 kts | 185° |
| 2026-04-27 18:16 | 17.03415 | 38.96376 | 37865 ft | 474 kts | 185° |
| 2026-04-27 18:17 | 16.96828 | 38.96138 | 37862 ft | 474 kts | 185° |
| 2026-04-27 18:17 | 16.90234 | 38.95900 | 37868 ft | 474 kts | 185° |
| 2026-04-27 18:18 | 16.83646 | 38.95662 | 37868 ft | 474 kts | 185° |
| 2026-04-27 18:18 | 16.77056 | 38.95424 | 37870 ft | 474 kts | 185° |
| 2026-04-27 18:19 | 16.70465 | 38.95186 | 37870 ft | 474 kts | 185° |
| 2026-04-27 18:19 | 16.63883 | 38.94949 | 37867 ft | 473 kts | 185° |
| 2026-04-27 18:20 | 16.57299 | 38.94712 | 37870 ft | 473 kts | 185° |
| 2026-04-27 18:20 | 16.50722 | 38.94475 | 37872 ft | 473 kts | 185° |
| 2026-04-27 18:21 | 16.44143 | 38.94238 | 37870 ft | 473 kts | 185° |
| 2026-04-27 18:21 | 16.37566 | 38.94002 | 37873 ft | 473 kts | 185° |
| 2026-04-27 18:22 | 16.31040 | 38.93768 | 37891 ft | 472 kts | 185° |
| 2026-04-27 18:22 | 16.24474 | 38.93532 | 37893 ft | 472 kts | 185° |
| 2026-04-27 18:23 | 16.17906 | 38.93297 | 37900 ft | 472 kts | 184° |
| 2026-04-27 18:23 | 16.11350 | 38.93061 | 37904 ft | 472 kts | 184° |
| 2026-04-27 18:24 | 16.04786 | 38.92826 | 37913 ft | 472 kts | 184° |
| 2026-04-27 18:24 | 15.98223 | 38.92591 | 37907 ft | 472 kts | 184° |
| 2026-04-27 18:25 | 15.91661 | 38.92356 | 37922 ft | 472 kts | 184° |
| 2026-04-27 18:25 | 15.85102 | 38.92122 | 37933 ft | 472 kts | 184° |
| 2026-04-27 18:26 | 15.78541 | 38.91887 | 37930 ft | 472 kts | 184° |
| 2026-04-27 18:26 | 15.71971 | 38.91653 | 37952 ft | 472 kts | 184° |
| 2026-04-27 18:27 | 15.65403 | 38.91418 | 37952 ft | 472 kts | 184° |
| 2026-04-27 18:27 | 15.58839 | 38.91184 | 37968 ft | 472 kts | 184° |
| 2026-04-27 18:28 | 15.52283 | 38.90951 | 37980 ft | 471 kts | 184° |
| 2026-04-27 18:28 | 15.45730 | 38.90717 | 37985 ft | 471 kts | 184° |
| 2026-04-27 18:29 | 15.39177 | 38.90484 | 37998 ft | 471 kts | 184° |
| 2026-04-27 18:29 | 15.32635 | 38.90251 | 37999 ft | 470 kts | 184° |
| 2026-04-27 18:30 | 15.26115 | 38.90041 | 38009 ft | 468 kts | 182° |
| 2026-04-27 18:30 | 15.19604 | 38.90027 | 38015 ft | 467 kts | 181° |
| 2026-04-27 18:31 | 15.13107 | 38.90062 | 38016 ft | 466 kts | 181° |
| 2026-04-27 18:31 | 15.06629 | 38.90073 | 38030 ft | 465 kts | 181° |
| 2026-04-27 18:32 | 15.00171 | 38.90067 | 38017 ft | 463 kts | 181° |
| 2026-04-27 18:32 | 14.93733 | 38.90057 | 38020 ft | 462 kts | 181° |
| 2026-04-27 18:33 | 14.87302 | 38.90048 | 38018 ft | 461 kts | 181° |
| 2026-04-27 18:33 | 14.80890 | 38.90040 | 38024 ft | 460 kts | 181° |
| 2026-04-27 18:34 | 14.74485 | 38.90031 | 38021 ft | 460 kts | 181° |
| 2026-04-27 18:34 | 14.68100 | 38.90023 | 38014 ft | 459 kts | 181° |
| 2026-04-27 18:35 | 14.61714 | 38.90015 | 38029 ft | 459 kts | 181° |
| 2026-04-27 18:35 | 14.55327 | 38.90007 | 38028 ft | 459 kts | 181° |
| 2026-04-27 18:36 | 14.48945 | 38.90044 | 38033 ft | 459 kts | 177° |
| 2026-04-27 18:36 | 14.42578 | 38.90669 | 38050 ft | 460 kts | 174° |
| 2026-04-27 18:37 | 14.36246 | 38.91455 | 38041 ft | 461 kts | 174° |
| 2026-04-27 18:37 | 14.29866 | 38.92217 | 38057 ft | 462 kts | 174° |
| 2026-04-27 18:38 | 14.23466 | 38.92941 | 38056 ft | 463 kts | 175° |
| 2026-04-27 18:38 | 14.17055 | 38.93649 | 38074 ft | 463 kts | 175° |
| 2026-04-27 18:39 | 14.10644 | 38.94355 | 38074 ft | 464 kts | 175° |
| 2026-04-27 18:39 | 14.04225 | 38.95062 | 38086 ft | 464 kts | 174° |
| 2026-04-27 18:40 | 13.97804 | 38.95771 | 38082 ft | 464 kts | 175° |
| 2026-04-27 18:40 | 13.91371 | 38.96480 | 38088 ft | 466 kts | 173° |
| 2026-04-27 18:41 | 13.84907 | 38.97193 | 38084 ft | 469 kts | 173° |
| 2026-04-27 18:41 | 13.78402 | 38.97909 | 38082 ft | 471 kts | 173° |
| 2026-04-27 18:42 | 13.72970 | 38.98507 | 38064 ft | 473 kts | 173° |
| 2026-04-27 18:42 | 13.65337 | 38.99347 | 38065 ft | 476 kts | 174° |
| 2026-04-27 18:43 | 13.58676 | 39.00080 | 38053 ft | 480 kts | 174° |
| 2026-04-27 18:43 | 13.52003 | 39.00813 | 38052 ft | 484 kts | 174° |
| 2026-04-27 18:44 | 13.45289 | 39.01551 | 38033 ft | 486 kts | 174° |
| 2026-04-27 18:44 | 13.38555 | 39.02290 | 37998 ft | 487 kts | 174° |
| 2026-04-27 18:45 | 13.31806 | 39.03031 | 38003 ft | 488 kts | 174° |
| 2026-04-27 18:45 | 13.25096 | 39.03767 | 37994 ft | 488 kts | 174° |
| 2026-04-27 18:46 | 13.18310 | 39.04510 | 37988 ft | 487 kts | 174° |
| 2026-04-27 18:46 | 13.11622 | 39.05243 | 37985 ft | 486 kts | 174° |
| 2026-04-27 18:47 | 13.04926 | 39.05976 | 37977 ft | 481 kts | 174° |
| 2026-04-27 18:47 | 12.98320 | 39.06699 | 37973 ft | 475 kts | 174° |
| 2026-04-27 18:48 | 12.91758 | 39.07417 | 37981 ft | 477 kts | 174° |
| 2026-04-27 18:48 | 12.85118 | 39.08142 | 37985 ft | 482 kts | 174° |
| 2026-04-27 18:49 | 12.78448 | 39.08871 | 38000 ft | 480 kts | 174° |
| 2026-04-27 18:49 | 12.71855 | 39.09591 | 37983 ft | 473 kts | 174° |
| 2026-04-27 18:50 | 12.66429 | 39.10183 | 38005 ft | 471 kts | 174° |
| 2026-04-27 18:50 | 12.59913 | 39.10894 | 37997 ft | 470 kts | 174° |
| 2026-04-27 18:51 | 12.53411 | 39.11603 | 38016 ft | 470 kts | 173° |
| 2026-04-27 18:51 | 12.46908 | 39.12312 | 38055 ft | 470 kts | 173° |
| 2026-04-27 18:52 | 12.40400 | 39.13021 | 38055 ft | 470 kts | 173° |
| 2026-04-27 18:53 | 12.30627 | 39.14085 | 38064 ft | 471 kts | 173° |
| 2026-04-27 18:53 | 12.24109 | 39.14794 | 38089 ft | 471 kts | 173° |
| 2026-04-27 18:54 | 12.17590 | 39.15502 | 38081 ft | 471 kts | 173° |
| 2026-04-27 18:54 | 12.11071 | 39.16211 | 38094 ft | 471 kts | 173° |
| 2026-04-27 18:55 | 12.04564 | 39.16918 | 38101 ft | 470 kts | 173° |
| 2026-04-27 18:55 | 11.98096 | 39.17620 | 38116 ft | 470 kts | 173° |
| 2026-04-27 18:56 | 11.91599 | 39.18325 | 38109 ft | 470 kts | 173° |
| 2026-04-27 18:56 | 11.85100 | 39.19030 | 38112 ft | 469 kts | 173° |
| 2026-04-27 18:57 | 11.78612 | 39.19733 | 38091 ft | 469 kts | 173° |
| 2026-04-27 18:57 | 11.72121 | 39.20437 | 38095 ft | 469 kts | 173° |
| 2026-04-27 18:58 | 11.65637 | 39.21139 | 38080 ft | 469 kts | 173° |
| 2026-04-27 18:58 | 11.59159 | 39.21840 | 38081 ft | 468 kts | 173° |
| 2026-04-27 18:59 | 11.52684 | 39.22541 | 38085 ft | 467 kts | 173° |
| 2026-04-27 18:59 | 11.46222 | 39.23240 | 38093 ft | 467 kts | 173° |
| 2026-04-27 19:00 | 11.39752 | 39.23821 | 38067 ft | 467 kts | 179° |
| 2026-04-27 19:00 | 11.33319 | 39.22925 | 38093 ft | 468 kts | 191° |
| 2026-04-27 19:01 | 11.26953 | 39.21523 | 38091 ft | 468 kts | 191° |
| 2026-04-27 19:01 | 11.20569 | 39.20147 | 38068 ft | 469 kts | 191° |
| 2026-04-27 19:02 | 11.14178 | 39.18814 | 38077 ft | 469 kts | 191° |
| 2026-04-27 19:02 | 11.07778 | 39.17494 | 38088 ft | 470 kts | 191° |
| 2026-04-27 19:03 | 11.01370 | 39.16172 | 38091 ft | 470 kts | 191° |
| 2026-04-27 19:03 | 10.94950 | 39.14845 | 38097 ft | 471 kts | 191° |
| 2026-04-27 19:04 | 10.88531 | 39.13519 | 38097 ft | 471 kts | 191° |
| 2026-04-27 19:04 | 10.82109 | 39.12192 | 38067 ft | 471 kts | 191° |
| 2026-04-27 19:05 | 10.75690 | 39.10867 | 38063 ft | 471 kts | 191° |
| 2026-04-27 19:05 | 10.69487 | 39.08752 | 38065 ft | 472 kts | 202° |
| 2026-04-27 19:06 | 10.63497 | 39.06010 | 38035 ft | 472 kts | 204° |
| 2026-04-27 19:06 | 10.57507 | 39.03273 | 38027 ft | 472 kts | 203° |
| 2026-04-27 19:07 | 10.51482 | 39.00608 | 37981 ft | 473 kts | 202° |
| 2026-04-27 19:07 | 10.45434 | 38.97974 | 37984 ft | 473 kts | 202° |
| 2026-04-27 19:08 | 10.39417 | 38.95361 | 37975 ft | 473 kts | 202° |
| 2026-04-27 19:08 | 10.33358 | 38.92728 | 37884 ft | 475 kts | 202° |
| 2026-04-27 19:08 | 10.30309 | 38.91403 | 37595 ft | 477 kts | 202° |
| 2026-04-27 19:09 | 10.27260 | 38.90077 | 37200 ft | 475 kts | 202° |
| 2026-04-27 19:09 | 10.24238 | 38.88762 | 36822 ft | 470 kts | 202° |
| 2026-04-27 19:09 | 10.21251 | 38.87463 | 36446 ft | 463 kts | 202° |
| 2026-04-27 19:09 | 10.18312 | 38.86186 | 36051 ft | 457 kts | 202° |
| 2026-04-27 19:10 | 10.15393 | 38.84918 | 35565 ft | 455 kts | 202° |
| 2026-04-27 19:10 | 10.12493 | 38.83658 | 35117 ft | 452 kts | 202° |
| 2026-04-27 19:10 | 10.09611 | 38.82406 | 34658 ft | 449 kts | 202° |
| 2026-04-27 19:10 | 10.07711 | 38.81582 | 34357 ft | 449 kts | 202° |
| 2026-04-27 19:11 | 10.03849 | 38.79906 | 33746 ft | 454 kts | 203° |
| 2026-04-27 19:11 | 10.00933 | 38.78640 | 33272 ft | 457 kts | 202° |
| 2026-04-27 19:11 | 9.98003 | 38.77368 | 32780 ft | 460 kts | 202° |
| 2026-04-27 19:11 | 9.95047 | 38.76086 | 32300 ft | 463 kts | 202° |
| 2026-04-27 19:12 | 9.92081 | 38.74799 | 31825 ft | 464 kts | 202° |
| 2026-04-27 19:12 | 9.89108 | 38.73509 | 31364 ft | 465 kts | 202° |
| 2026-04-27 19:12 | 9.86120 | 38.72243 | 30911 ft | 465 kts | 198° |
| 2026-04-27 19:12 | 9.82966 | 38.71584 | 30430 ft | 463 kts | 180° |
| 2026-04-27 19:13 | 9.79767 | 38.71804 | 30029 ft | 460 kts | 172° |
| 2026-04-27 19:13 | 9.76603 | 38.72228 | 29498 ft | 459 kts | 171° |
| 2026-04-27 19:13 | 9.73442 | 38.72678 | 28979 ft | 458 kts | 171° |
| 2026-04-27 19:13 | 9.70289 | 38.73140 | 28469 ft | 458 kts | 171° |
| 2026-04-27 19:14 | 9.67140 | 38.73609 | 28003 ft | 457 kts | 170° |
| 2026-04-27 19:14 | 9.63989 | 38.74082 | 27515 ft | 458 kts | 170° |
| 2026-04-27 19:14 | 9.60832 | 38.74543 | 27034 ft | 459 kts | 172° |
| 2026-04-27 19:14 | 9.57647 | 38.74869 | 26557 ft | 461 kts | 174° |
| 2026-04-27 19:15 | 9.54436 | 38.75113 | 26133 ft | 463 kts | 174° |
| 2026-04-27 19:15 | 9.51243 | 38.75335 | 25666 ft | 456 kts | 174° |
| 2026-04-27 19:15 | 9.48109 | 38.75562 | 25208 ft | 447 kts | 174° |
| 2026-04-27 19:15 | 9.45036 | 38.75801 | 24757 ft | 439 kts | 174° |
| 2026-04-27 19:16 | 9.42062 | 38.76047 | 24417 ft | 429 kts | 174° |
| 2026-04-27 19:16 | 9.40074 | 38.76216 | 24279 ft | 421 kts | 174° |
| 2026-04-27 19:16 | 9.36280 | 38.76546 | 23976 ft | 406 kts | 173° |
| 2026-04-27 19:16 | 9.33502 | 38.76789 | 23752 ft | 395 kts | 173° |
| 2026-04-27 19:17 | 9.30795 | 38.77027 | 23506 ft | 386 kts | 173° |
| 2026-04-27 19:17 | 9.28149 | 38.77260 | 23238 ft | 378 kts | 173° |
| 2026-04-27 19:17 | 9.25556 | 38.77487 | 22976 ft | 370 kts | 173° |
| 2026-04-27 19:17 | 9.23020 | 38.77709 | 22720 ft | 362 kts | 173° |
| 2026-04-27 19:18 | 9.20531 | 38.77927 | 22466 ft | 356 kts | 173° |
| 2026-04-27 19:18 | 9.18083 | 38.78141 | 22218 ft | 350 kts | 173° |
| 2026-04-27 19:18 | 9.15677 | 38.78352 | 21966 ft | 344 kts | 173° |
| 2026-04-27 19:18 | 9.13309 | 38.78559 | 21865 ft | 341 kts | 173° |
| 2026-04-27 19:19 | 9.10958 | 38.78765 | 21639 ft | 338 kts | 173° |
| 2026-04-27 19:19 | 9.08625 | 38.78969 | 21415 ft | 335 kts | 173° |
| 2026-04-27 19:19 | 9.06313 | 38.79170 | 21192 ft | 333 kts | 173° |
| 2026-04-27 19:19 | 9.04015 | 38.79371 | 20948 ft | 330 kts | 173° |
| 2026-04-27 19:20 | 9.01730 | 38.79571 | 20720 ft | 330 kts | 173° |
| 2026-04-27 19:20 | 8.99429 | 38.79772 | 20494 ft | 333 kts | 173° |
| 2026-04-27 19:20 | 8.97105 | 38.79960 | 20267 ft | 336 kts | 178° |
| 2026-04-27 19:20 | 8.94809 | 38.79577 | 20011 ft | 338 kts | 201° |
| 2026-04-27 19:21 | 8.92831 | 38.78320 | 19791 ft | 338 kts | 224° |
| 2026-04-27 19:21 | 8.91456 | 38.76417 | 19567 ft | 337 kts | 246° |
| 2026-04-27 19:21 | 8.90878 | 38.74144 | 19341 ft | 335 kts | 268° |
| 2026-04-27 19:21 | 8.91176 | 38.71833 | 19114 ft | 332 kts | 290° |
| 2026-04-27 19:22 | 8.92288 | 38.69821 | 18890 ft | 328 kts | 313° |
| 2026-04-27 19:22 | 8.94028 | 38.68373 | 18669 ft | 323 kts | 333° |
| 2026-04-27 19:22 | 8.96112 | 38.67588 | 18416 ft | 320 kts | 352° |
| 2026-04-27 19:22 | 8.98314 | 38.67326 | 18179 ft | 318 kts | 356° |
| 2026-04-27 19:23 | 9.00521 | 38.67158 | 17922 ft | 318 kts | 357° |
| 2026-04-27 19:23 | 9.02724 | 38.66998 | 17654 ft | 317 kts | 357° |
| 2026-04-27 19:23 | 9.04922 | 38.66823 | 17402 ft | 316 kts | 356° |
| 2026-04-27 19:23 | 9.07112 | 38.66636 | 17148 ft | 315 kts | 356° |
| 2026-04-27 19:24 | 9.09293 | 38.66444 | 16886 ft | 314 kts | 356° |
| 2026-04-27 19:24 | 9.11469 | 38.66347 | 16620 ft | 312 kts | 7° |
| 2026-04-27 19:24 | 9.13513 | 38.66995 | 16368 ft | 307 kts | 29° |
| 2026-04-27 19:24 | 9.15176 | 38.68311 | 16027 ft | 303 kts | 48° |
| 2026-04-27 19:25 | 9.16314 | 38.70083 | 15788 ft | 301 kts | 66° |
| 2026-04-27 19:25 | 9.16814 | 38.72129 | 15550 ft | 301 kts | 85° |
| 2026-04-27 19:25 | 9.16598 | 38.74234 | 15315 ft | 303 kts | 105° |
| 2026-04-27 19:25 | 9.15690 | 38.76121 | 15087 ft | 305 kts | 125° |
| 2026-04-27 19:26 | 9.14163 | 38.77608 | 14864 ft | 307 kts | 144° |
| 2026-04-27 19:26 | 9.12218 | 38.78564 | 14767 ft | 310 kts | 164° |
| 2026-04-27 19:26 | 9.10117 | 38.78907 | 14569 ft | 310 kts | 173° |
| 2026-04-27 19:26 | 9.07963 | 38.79086 | 14406 ft | 310 kts | 175° |
| 2026-04-27 19:27 | 9.05795 | 38.79243 | 14367 ft | 309 kts | 175° |
| 2026-04-27 19:27 | 9.03638 | 38.79410 | 14355 ft | 312 kts | 174° |
| 2026-04-27 19:27 | 9.01459 | 38.79593 | 14358 ft | 316 kts | 174° |
| 2026-04-27 19:27 | 8.99300 | 38.79781 | 14347 ft | 315 kts | 174° |
| 2026-04-27 19:28 | 8.97087 | 38.79961 | 14339 ft | 315 kts | 179° |
| 2026-04-27 19:28 | 8.94984 | 38.79566 | 14343 ft | 313 kts | 205° |
| 2026-04-27 19:28 | 8.93242 | 38.78297 | 14343 ft | 310 kts | 230° |
| 2026-04-27 19:28 | 8.92163 | 38.76445 | 14356 ft | 306 kts | 254° |
| 2026-04-27 19:29 | 8.91895 | 38.74343 | 14358 ft | 302 kts | 277° |
| 2026-04-27 19:29 | 8.92455 | 38.72328 | 14346 ft | 298 kts | 301° |
| 2026-04-27 19:29 | 8.93732 | 38.70715 | 14341 ft | 294 kts | 323° |
| 2026-04-27 19:29 | 8.95482 | 38.69684 | 14342 ft | 292 kts | 342° |
| 2026-04-27 19:30 | 8.97466 | 38.69301 | 14353 ft | 291 kts | 355° |
| 2026-04-27 19:30 | 8.99487 | 38.69132 | 14339 ft | 292 kts | 356° |
| 2026-04-27 19:30 | 9.01518 | 38.68974 | 14334 ft | 293 kts | 356° |
| 2026-04-27 19:30 | 9.03553 | 38.68806 | 14323 ft | 294 kts | 356° |
| 2026-04-27 19:31 | 9.05592 | 38.68641 | 14316 ft | 294 kts | 359° |
| 2026-04-27 19:31 | 9.07584 | 38.68998 | 14312 ft | 292 kts | 23° |
| 2026-04-27 19:31 | 9.09267 | 38.70129 | 14305 ft | 293 kts | 44° |
| 2026-04-27 19:31 | 9.10429 | 38.71820 | 14318 ft | 296 kts | 65° |
| 2026-04-27 19:32 | 9.10884 | 38.73851 | 14322 ft | 300 kts | 87° |
| 2026-04-27 19:32 | 9.10515 | 38.75928 | 14316 ft | 305 kts | 111° |
| 2026-04-27 19:32 | 9.09336 | 38.77707 | 14328 ft | 308 kts | 135° |
| 2026-04-27 19:32 | 9.07528 | 38.78874 | 14345 ft | 311 kts | 158° |
| 2026-04-27 19:33 | 9.05412 | 38.79308 | 14353 ft | 312 kts | 174° |
| 2026-04-27 19:33 | 9.04681 | 38.79373 | 14358 ft | 312 kts | 174° |
| 2026-04-27 19:33 | 9.01065 | 38.79649 | 14349 ft | 314 kts | 175° |
| 2026-04-27 19:33 | 8.98881 | 38.79827 | 14348 ft | 315 kts | 174° |
| 2026-04-27 19:34 | 8.96691 | 38.79967 | 14340 ft | 316 kts | 182° |
| 2026-04-27 19:34 | 8.94593 | 38.79383 | 14344 ft | 315 kts | 210° |
| 2026-04-27 19:34 | 8.92949 | 38.77959 | 14354 ft | 312 kts | 235° |
| 2026-04-27 19:34 | 8.92022 | 38.76007 | 14359 ft | 308 kts | 259° |
| 2026-04-27 19:35 | 8.91936 | 38.73875 | 14361 ft | 303 kts | 283° |
| 2026-04-27 19:35 | 8.92676 | 38.71912 | 14347 ft | 299 kts | 306° |
| 2026-04-27 19:35 | 8.94097 | 38.70421 | 14342 ft | 294 kts | 327° |
| 2026-04-27 19:35 | 8.95927 | 38.69537 | 14338 ft | 292 kts | 347° |
| 2026-04-27 19:36 | 8.97932 | 38.69255 | 14356 ft | 291 kts | 356° |
| 2026-04-27 19:36 | 8.99927 | 38.69096 | 14336 ft | 292 kts | 356° |
| 2026-04-27 19:36 | 9.01955 | 38.68937 | 14330 ft | 293 kts | 356° |
| 2026-04-27 19:36 | 9.03988 | 38.68767 | 14327 ft | 293 kts | 356° |
| 2026-04-27 19:37 | 9.06020 | 38.68638 | 14317 ft | 293 kts | 4° |
| 2026-04-27 19:37 | 9.07966 | 38.69175 | 14322 ft | 292 kts | 27° |
| 2026-04-27 19:37 | 9.09554 | 38.70437 | 14318 ft | 293 kts | 49° |
| 2026-04-27 19:37 | 9.10322 | 38.71595 | 14325 ft | 295 kts | 63° |
| 2026-04-27 19:38 | 9.10877 | 38.74278 | 14320 ft | 300 kts | 92° |
| 2026-04-27 19:38 | 9.10605 | 38.75684 | 14320 ft | 304 kts | 108° |
| 2026-04-27 19:38 | 9.09520 | 38.77516 | 14330 ft | 308 kts | 132° |
| 2026-04-27 19:38 | 9.07775 | 38.78767 | 14343 ft | 311 kts | 155° |
| 2026-04-27 19:39 | 9.05678 | 38.79283 | 14361 ft | 312 kts | 173° |
| 2026-04-27 19:39 | 9.03544 | 38.79463 | 14355 ft | 313 kts | 175° |
| 2026-04-27 19:39 | 9.01365 | 38.79627 | 14348 ft | 314 kts | 175° |
| 2026-04-27 19:39 | 8.99185 | 38.79802 | 14341 ft | 315 kts | 174° |
| 2026-04-27 19:40 | 8.96969 | 38.79969 | 14341 ft | 316 kts | 180° |
| 2026-04-27 19:40 | 8.94865 | 38.79520 | 14345 ft | 315 kts | 207° |
| 2026-04-27 19:40 | 8.93141 | 38.78196 | 14351 ft | 312 kts | 232° |
| 2026-04-27 19:40 | 8.92106 | 38.76298 | 14356 ft | 308 kts | 256° |
| 2026-04-27 19:41 | 8.91902 | 38.74170 | 14355 ft | 304 kts | 279° |
| 2026-04-27 19:41 | 8.92536 | 38.72163 | 14351 ft | 299 kts | 302° |
| 2026-04-27 19:41 | 8.93878 | 38.70594 | 14339 ft | 295 kts | 325° |
| 2026-04-27 19:41 | 8.95669 | 38.69622 | 14341 ft | 293 kts | 344° |
| 2026-04-27 19:42 | 8.97667 | 38.69290 | 14350 ft | 291 kts | 355° |
| 2026-04-27 19:42 | 8.99692 | 38.69124 | 14344 ft | 292 kts | 356° |
| 2026-04-27 19:42 | 9.01721 | 38.68965 | 14339 ft | 293 kts | 356° |
| 2026-04-27 19:42 | 9.03753 | 38.68797 | 14332 ft | 293 kts | 356° |
| 2026-04-27 19:43 | 9.05786 | 38.68645 | 14321 ft | 293 kts | 1° |
| 2026-04-27 19:43 | 9.07757 | 38.69083 | 14322 ft | 292 kts | 25° |
| 2026-04-27 19:43 | 9.09394 | 38.70276 | 14326 ft | 293 kts | 46° |
| 2026-04-27 19:43 | 9.10494 | 38.72007 | 14327 ft | 296 kts | 67° |
| 2026-04-27 19:44 | 9.10875 | 38.74052 | 14332 ft | 300 kts | 89° |
| 2026-04-27 19:44 | 9.10429 | 38.76115 | 14328 ft | 305 kts | 113° |
| 2026-04-27 19:44 | 9.09182 | 38.77846 | 14337 ft | 309 kts | 137° |
| 2026-04-27 19:44 | 9.07335 | 38.78947 | 14351 ft | 311 kts | 160° |
| 2026-04-27 19:45 | 9.05207 | 38.79329 | 14355 ft | 312 kts | 174° |
| 2026-04-27 19:45 | 9.03038 | 38.79500 | 14348 ft | 313 kts | 175° |
| 2026-04-27 19:45 | 9.00862 | 38.79666 | 14349 ft | 314 kts | 175° |
| 2026-04-27 19:45 | 8.98680 | 38.79844 | 14357 ft | 315 kts | 174° |
| 2026-04-27 19:46 | 8.96495 | 38.79953 | 14352 ft | 315 kts | 185° |
| 2026-04-27 19:46 | 8.94431 | 38.79280 | 14381 ft | 313 kts | 212° |
| 2026-04-27 19:46 | 8.92843 | 38.77799 | 14379 ft | 311 kts | 237° |
| 2026-04-27 19:46 | 8.91991 | 38.75823 | 14383 ft | 307 kts | 261° |
| 2026-04-27 19:47 | 8.91983 | 38.73690 | 14386 ft | 303 kts | 285° |
| 2026-04-27 19:47 | 8.92796 | 38.71759 | 14375 ft | 299 kts | 308° |
| 2026-04-27 19:47 | 8.94272 | 38.70323 | 14375 ft | 295 kts | 329° |
| 2026-04-27 19:47 | 8.96138 | 38.69507 | 14365 ft | 293 kts | 349° |
| 2026-04-27 19:48 | 8.98126 | 38.69249 | 14382 ft | 292 kts | 355° |
| 2026-04-27 19:48 | 9.00156 | 38.69087 | 14372 ft | 293 kts | 356° |
| 2026-04-27 19:48 | 9.02191 | 38.68933 | 14367 ft | 294 kts | 356° |
| 2026-04-27 19:48 | 9.04229 | 38.68768 | 14361 ft | 294 kts | 356° |
| 2026-04-27 19:49 | 9.06267 | 38.68593 | 14357 ft | 294 kts | 355° |
| 2026-04-27 19:49 | 9.08301 | 38.68415 | 14349 ft | 294 kts | 355° |
| 2026-04-27 19:49 | 9.10336 | 38.68276 | 14343 ft | 292 kts | 3° |
| 2026-04-27 19:49 | 9.12282 | 38.68792 | 14357 ft | 291 kts | 27° |
| 2026-04-27 19:50 | 9.13876 | 38.70048 | 14351 ft | 293 kts | 48° |
| 2026-04-27 19:50 | 9.14910 | 38.71822 | 14305 ft | 296 kts | 69° |
| 2026-04-27 19:50 | 9.15210 | 38.73881 | 14304 ft | 300 kts | 92° |
| 2026-04-27 19:50 | 9.14682 | 38.75923 | 14310 ft | 305 kts | 115° |
| 2026-04-27 19:51 | 9.13365 | 38.77604 | 14357 ft | 309 kts | 140° |
| 2026-04-27 19:51 | 9.11474 | 38.78634 | 14372 ft | 312 kts | 163° |
| 2026-04-27 19:51 | 9.09324 | 38.78975 | 14378 ft | 313 kts | 174° |
| 2026-04-27 19:51 | 9.07148 | 38.79150 | 14374 ft | 314 kts | 175° |
| 2026-04-27 19:52 | 9.04970 | 38.79309 | 14373 ft | 314 kts | 175° |
| 2026-04-27 19:52 | 9.02788 | 38.79482 | 14367 ft | 315 kts | 174° |
| 2026-04-27 19:52 | 9.00607 | 38.79667 | 14379 ft | 315 kts | 174° |
| 2026-04-27 19:52 | 8.98425 | 38.79858 | 14378 ft | 315 kts | 174° |
| 2026-04-27 19:53 | 8.94206 | 38.79142 | 14383 ft | 313 kts | 216° |
| 2026-04-27 19:53 | 8.92698 | 38.77586 | 14378 ft | 311 kts | 240° |
| 2026-04-27 19:53 | 8.91942 | 38.75569 | 14383 ft | 307 kts | 264° |
| 2026-04-27 19:54 | 8.92036 | 38.73445 | 14387 ft | 302 kts | 287° |
| 2026-04-27 19:54 | 8.92938 | 38.71558 | 14375 ft | 298 kts | 310° |
| 2026-04-27 19:54 | 8.94473 | 38.70190 | 14381 ft | 294 kts | 331° |
| 2026-04-27 19:54 | 8.96367 | 38.69457 | 14371 ft | 293 kts | 351° |
| 2026-04-27 19:55 | 8.98391 | 38.69230 | 14377 ft | 293 kts | 356° |
| 2026-04-27 19:55 | 9.00426 | 38.69068 | 14370 ft | 294 kts | 356° |
| 2026-04-27 19:55 | 9.02465 | 38.68909 | 14365 ft | 294 kts | 356° |
| 2026-04-27 19:55 | 9.04503 | 38.68740 | 14362 ft | 294 kts | 356° |
| 2026-04-27 19:56 | 9.06541 | 38.68564 | 14360 ft | 294 kts | 355° |
| 2026-04-27 19:56 | 9.08576 | 38.68385 | 14355 ft | 293 kts | 355° |
| 2026-04-27 19:56 | 9.10607 | 38.68285 | 14348 ft | 292 kts | 6° |
| 2026-04-27 19:56 | 9.12519 | 38.68914 | 14366 ft | 291 kts | 30° |
| 2026-04-27 19:57 | 9.14049 | 38.70252 | 14362 ft | 293 kts | 51° |
| 2026-04-27 19:57 | 9.14994 | 38.72074 | 14334 ft | 296 kts | 72° |
| 2026-04-27 19:57 | 9.15191 | 38.74148 | 14332 ft | 300 kts | 95° |
| 2026-04-27 19:57 | 9.14557 | 38.76164 | 14336 ft | 305 kts | 118° |
| 2026-04-27 19:58 | 9.13151 | 38.77773 | 14364 ft | 309 kts | 143° |
| 2026-04-27 19:58 | 9.11209 | 38.78708 | 14372 ft | 313 kts | 166° |
| 2026-04-27 19:58 | 9.09050 | 38.78998 | 14381 ft | 313 kts | 174° |
| 2026-04-27 19:58 | 9.06877 | 38.79168 | 14371 ft | 314 kts | 175° |
| 2026-04-27 19:59 | 9.04697 | 38.79329 | 14376 ft | 314 kts | 175° |
| 2026-04-27 19:59 | 9.02515 | 38.79504 | 14356 ft | 314 kts | 174° |
| 2026-04-27 19:59 | 9.00338 | 38.79690 | 14377 ft | 314 kts | 174° |
| 2026-04-27 19:59 | 8.98157 | 38.79881 | 14375 ft | 315 kts | 174° |
| 2026-04-27 20:00 | 8.95971 | 38.79883 | 14356 ft | 316 kts | 192° |
| 2026-04-27 20:00 | 8.93988 | 38.78990 | 14381 ft | 314 kts | 218° |
| 2026-04-27 20:00 | 8.92577 | 38.77381 | 14384 ft | 311 kts | 243° |
| 2026-04-27 20:00 | 8.91915 | 38.75332 | 14385 ft | 306 kts | 267° |
| 2026-04-27 20:01 | 8.92107 | 38.73215 | 14385 ft | 302 kts | 290° |
| 2026-04-27 20:01 | 8.93097 | 38.71372 | 14373 ft | 298 kts | 313° |
| 2026-04-27 20:01 | 8.94696 | 38.70074 | 14382 ft | 295 kts | 333° |
| 2026-04-27 20:01 | 8.96626 | 38.69430 | 14375 ft | 293 kts | 353° |
| 2026-04-27 20:02 | 8.98652 | 38.69221 | 14376 ft | 293 kts | 356° |
| 2026-04-27 20:02 | 9.00692 | 38.69061 | 14372 ft | 294 kts | 356° |
| 2026-04-27 20:02 | 9.02731 | 38.68902 | 14369 ft | 294 kts | 356° |
| 2026-04-27 20:02 | 9.04768 | 38.68733 | 14367 ft | 294 kts | 356° |
| 2026-04-27 20:03 | 9.06804 | 38.68557 | 14365 ft | 293 kts | 355° |
| 2026-04-27 20:03 | 9.08837 | 38.68377 | 14353 ft | 293 kts | 355° |
| 2026-04-27 20:03 | 9.10866 | 38.68333 | 14355 ft | 292 kts | 10° |
| 2026-04-27 20:03 | 9.12740 | 38.69072 | 14370 ft | 292 kts | 33° |
| 2026-04-27 20:04 | 9.14200 | 38.70485 | 14351 ft | 293 kts | 54° |
| 2026-04-27 20:04 | 9.15053 | 38.72358 | 14343 ft | 296 kts | 75° |
| 2026-04-27 20:04 | 9.15137 | 38.74443 | 14346 ft | 301 kts | 98° |
| 2026-04-27 20:04 | 9.14391 | 38.76420 | 14350 ft | 305 kts | 122° |
| 2026-04-27 20:05 | 9.12895 | 38.77944 | 14368 ft | 310 kts | 146° |
| 2026-04-27 20:05 | 9.10906 | 38.78773 | 14371 ft | 313 kts | 169° |
| 2026-04-27 20:05 | 9.08744 | 38.79025 | 14381 ft | 313 kts | 174° |
| 2026-04-27 20:05 | 9.06568 | 38.79191 | 14375 ft | 314 kts | 175° |
| 2026-04-27 20:06 | 9.04389 | 38.79353 | 14374 ft | 314 kts | 175° |
| 2026-04-27 20:06 | 9.02207 | 38.79530 | 14354 ft | 314 kts | 174° |
| 2026-04-27 20:06 | 9.00030 | 38.79717 | 14376 ft | 315 kts | 174° |
| 2026-04-27 20:06 | 8.97845 | 38.79909 | 14375 ft | 315 kts | 174° |
| 2026-04-27 20:07 | 8.95665 | 38.79820 | 14359 ft | 316 kts | 196° |
| 2026-04-27 20:07 | 8.93742 | 38.78799 | 14381 ft | 313 kts | 222° |
| 2026-04-27 20:07 | 8.92420 | 38.77083 | 14385 ft | 310 kts | 247° |
| 2026-04-27 20:07 | 8.91889 | 38.74998 | 14381 ft | 306 kts | 270° |
| 2026-04-27 20:08 | 8.92212 | 38.72903 | 14380 ft | 301 kts | 294° |
| 2026-04-27 20:08 | 8.93310 | 38.71133 | 14375 ft | 297 kts | 316° |
| 2026-04-27 20:08 | 8.94971 | 38.69931 | 14382 ft | 293 kts | 336° |
| 2026-04-27 20:08 | 8.96924 | 38.69386 | 14378 ft | 291 kts | 354° |
| 2026-04-27 20:09 | 8.98942 | 38.69191 | 14380 ft | 292 kts | 356° |
| 2026-04-27 20:09 | 9.00974 | 38.69036 | 14375 ft | 293 kts | 356° |
| 2026-04-27 20:09 | 9.03010 | 38.68878 | 14368 ft | 294 kts | 356° |
| 2026-04-27 20:09 | 9.05045 | 38.68709 | 14372 ft | 294 kts | 356° |
| 2026-04-27 20:10 | 9.07056 | 38.68534 | 14366 ft | 294 kts | 355° |
| 2026-04-27 20:10 | 9.09119 | 38.68352 | 14349 ft | 293 kts | 355° |
| 2026-04-27 20:10 | 9.11144 | 38.68386 | 14350 ft | 292 kts | 14° |
| 2026-04-27 20:10 | 9.12978 | 38.69237 | 14366 ft | 292 kts | 36° |
| 2026-04-27 20:11 | 9.14351 | 38.70706 | 14356 ft | 294 kts | 56° |
| 2026-04-27 20:11 | 9.15114 | 38.72626 | 14345 ft | 297 kts | 78° |
| 2026-04-27 20:11 | 9.15089 | 38.74718 | 14348 ft | 302 kts | 101° |
| 2026-04-27 20:11 | 9.14235 | 38.76656 | 14353 ft | 306 kts | 125° |
| 2026-04-27 20:12 | 9.12652 | 38.78099 | 14373 ft | 310 kts | 149° |
| 2026-04-27 20:12 | 9.11314 | 38.78679 | 14372 ft | 309 kts | 165° |
| 2026-04-27 20:12 | 9.08509 | 38.79058 | 14030 ft | 307 kts | 175° |
| 2026-04-27 20:12 | 9.06384 | 38.79212 | 13696 ft | 305 kts | 175° |
| 2026-04-27 20:13 | 9.04272 | 38.79366 | 13381 ft | 304 kts | 175° |
| 2026-04-27 20:13 | 9.02169 | 38.79502 | 13057 ft | 302 kts | 176° |
| 2026-04-27 20:13 | 9.00077 | 38.79619 | 12743 ft | 301 kts | 176° |
| 2026-04-27 20:13 | 8.97993 | 38.79729 | 12436 ft | 299 kts | 176° |
| 2026-04-27 20:14 | 8.95918 | 38.79836 | 12116 ft | 298 kts | 176° |
| 2026-04-27 20:14 | 8.93850 | 38.79940 | 11810 ft | 296 kts | 176° |
| 2026-04-27 20:14 | 8.91837 | 38.80038 | 11826 ft | 282 kts | 176° |
| 2026-04-27 20:14 | 8.89912 | 38.80130 | 11848 ft | 276 kts | 176° |
| 2026-04-27 20:15 | 8.87969 | 38.80222 | 11877 ft | 283 kts | 176° |
| 2026-04-27 20:15 | 8.85981 | 38.80318 | 11873 ft | 288 kts | 176° |
| 2026-04-27 20:15 | 8.83984 | 38.80408 | 11866 ft | 287 kts | 177° |
| 2026-04-27 20:15 | 8.82020 | 38.80101 | 11846 ft | 288 kts | 202° |
| 2026-04-27 20:16 | 8.80389 | 38.78956 | 11848 ft | 288 kts | 229° |
| 2026-04-27 20:16 | 8.79426 | 38.77201 | 11848 ft | 287 kts | 256° |
| 2026-04-27 20:16 | 8.79120 | 38.75218 | 11859 ft | 286 kts | 265° |
| 2026-04-27 20:16 | 8.78950 | 38.73210 | 11855 ft | 287 kts | 267° |
| 2026-04-27 20:17 | 8.78796 | 38.71190 | 11850 ft | 289 kts | 267° |
| 2026-04-27 20:17 | 8.78650 | 38.69191 | 11846 ft | 290 kts | 267° |
| 2026-04-27 20:17 | 8.78503 | 38.67159 | 11841 ft | 290 kts | 267° |
| 2026-04-27 20:17 | 8.78405 | 38.65782 | 11839 ft | 291 kts | 267° |
| 2026-04-27 20:18 | 8.78215 | 38.63085 | 11821 ft | 290 kts | 267° |
| 2026-04-27 20:18 | 8.78076 | 38.61058 | 11827 ft | 289 kts | 267° |
| 2026-04-27 20:18 | 8.77941 | 38.59039 | 11817 ft | 286 kts | 267° |
| 2026-04-27 20:18 | 8.77816 | 38.57055 | 11809 ft | 280 kts | 270° |
| 2026-04-27 20:19 | 8.78173 | 38.55169 | 11811 ft | 271 kts | 298° |
| 2026-04-27 20:19 | 8.79334 | 38.53723 | 11828 ft | 267 kts | 327° |
| 2026-04-27 20:19 | 8.81027 | 38.53009 | 11839 ft | 265 kts | 354° |
| 2026-04-27 20:19 | 8.82869 | 38.52906 | 11824 ft | 266 kts | 3° |
| 2026-04-27 20:20 | 8.84658 | 38.53295 | 11818 ft | 264 kts | 28° |
| 2026-04-27 20:20 | 8.86058 | 38.54458 | 11841 ft | 261 kts | 51° |
| 2026-04-27 20:20 | 8.87045 | 38.56000 | 11744 ft | 262 kts | 61° |
| 2026-04-27 20:20 | 8.87888 | 38.57625 | 11637 ft | 260 kts | 63° |
| 2026-04-27 20:21 | 8.88703 | 38.59237 | 11478 ft | 255 kts | 63° |
| 2026-04-27 20:21 | 8.89514 | 38.60817 | 11276 ft | 252 kts | 62° |
| 2026-04-27 20:21 | 8.90329 | 38.62376 | 11049 ft | 250 kts | 62° |
| 2026-04-27 20:21 | 8.91139 | 38.63912 | 10850 ft | 244 kts | 62° |
| 2026-04-27 20:22 | 8.91927 | 38.65400 | 10559 ft | 234 kts | 62° |
| 2026-04-27 20:22 | 8.92671 | 38.66802 | 10277 ft | 220 kts | 62° |
| 2026-04-27 20:22 | 8.93396 | 38.68118 | 9934 ft | 209 kts | 61° |
| 2026-04-27 20:22 | 8.94099 | 38.69367 | 9608 ft | 200 kts | 61° |
| 2026-04-27 20:23 | 8.94762 | 38.70562 | 9315 ft | 189 kts | 63° |
| 2026-04-27 20:23 | 8.95151 | 38.71332 | 9095 ft | 184 kts | 65° |
| 2026-04-27 20:23 | 8.95799 | 38.72835 | 8766 ft | 163 kts | 70° |
| 2026-04-27 20:23 | 8.96019 | 38.73540 | 8609 ft | 153 kts | 74° |
| 2026-04-27 20:24 | 8.96397 | 38.74871 | 8392 ft | 140 kts | 73° |
| 2026-04-27 20:24 | 8.96690 | 38.75828 | 8201 ft | 146 kts | 73° |
| 2026-04-27 20:24 | 8.96886 | 38.76480 | 8063 ft | 146 kts | 74° |
| 2026-04-27 20:24 | 8.97174 | 38.77473 | 7817 ft | 147 kts | 74° |
| 2026-04-27 20:25 | 8.97461 | 38.78453 | 7646 ft | 143 kts | 74° |
| 2026-04-27 20:25 | 8.97745 | 38.79422 | 7618 ft | 144 kts | 73° |
| 2026-04-27 20:25 | 8.97982 | 38.80231 | 7628 ft | 90 kts | 73° |
| 2026-04-27 20:25 | 8.98112 | 38.80674 | 7630 ft | 44 kts | 73° |
| 2026-04-27 20:26 | 8.98178 | 38.80900 | 7628 ft | 12 kts | 73° |
| 2026-04-27 20:26 | 8.98201 | 38.80980 | 7630 ft | 12 kts | 73° |
| 2026-04-27 20:26 | 8.98224 | 38.81058 | 7635 ft | 11 kts | 73° |
| 2026-04-27 20:26 | 8.98244 | 38.81125 | 7632 ft | 4 kts | 73° |
| 2026-04-27 20:27 | 8.98251 | 38.81149 | 7631 ft | 4 kts | 73° |
| 2026-04-27 20:27 | 8.98258 | 38.81173 | 7631 ft | 3 kts | 73° |
| 2026-04-27 20:27 | 8.98265 | 38.81196 | 7631 ft | 3 kts | 73° |
| 2026-04-27 20:27 | 8.98272 | 38.81218 | 7631 ft | 3 kts | 73° |
| 2026-04-27 20:28 | 8.98278 | 38.81240 | 7631 ft | 3 kts | 73° |
| 2026-04-27 20:28 | 8.98285 | 38.81261 | 7633 ft | 3 kts | 73° |
| 2026-04-27 20:28 | 8.98291 | 38.81282 | 7631 ft | 3 kts | 73° |
| 2026-04-27 20:28 | 8.98295 | 38.81295 | 7637 ft | 3 kts | 73° |
| 2026-04-27 20:29 | 8.98303 | 38.81321 | 7632 ft | 3 kts | 73° |
| 2026-04-27 20:29 | 8.98308 | 38.81339 | 7632 ft | 3 kts | 73° |
| 2026-04-27 20:29 | 8.98313 | 38.81357 | 7632 ft | 3 kts | 73° |
| 2026-04-27 20:29 | 8.98318 | 38.81374 | 7632 ft | 2 kts | 73° |
| 2026-04-27 20:30 | 8.98323 | 38.81391 | 7633 ft | 2 kts | 73° |
| 2026-04-27 20:30 | 8.98328 | 38.81406 | 7633 ft | 2 kts | 73° |
| 2026-04-27 20:30 | 8.98328 | 38.81408 | 7633 ft | 0 kts | 73° |